Time;durP1;ratioP1;P1;durP2;ratioP2;P2;SDS_P1;SDS_P2;PMS_P1;PMS_P2;Temp;Humidity;BMP_temperature;BMP_pressure;BME280_temperature;BME280_humidity;BME280_pressure;Samples;Min_cycle;Max_cycle;Signal;HPM_P1;HPM_P2
2023/01/13 00:01:14;;;;;;;1.23;0.40;;;13.80;99.90;;;;;;5033122;28;20673;-76
2023/01/13 00:03:40;;;;;;;1.03;0.40;;;13.80;99.90;;;;;;5034238;28;20589;-76
2023/01/13 00:06:07;;;;;;;1.10;0.50;;;13.80;99.90;;;;;;5050490;28;20583;-76
2023/01/13 00:08:33;;;;;;;1.57;0.40;;;13.80;99.90;;;;;;5050832;28;21195;-76
2023/01/13 00:10:59;;;;;;;1.00;0.40;;;13.80;99.90;;;;;;5050070;28;20618;-76
2023/01/13 00:13:27;;;;;;;1.10;0.40;;;13.90;99.90;;;;;;5050485;28;20597;-76
2023/01/13 00:16:04;;;;;;;1.20;0.50;;;13.90;99.90;;;;;;5068633;28;20569;-76
2023/01/13 00:18:30;;;;;;;1.00;0.30;;;13.90;99.90;;;;;;5050130;28;20618;-76
2023/01/13 00:21:05;;;;;;;1.03;0.40;;;13.80;99.90;;;;;;5067639;28;20578;-76
2023/01/13 00:23:33;;;;;;;1.00;0.40;;;13.80;99.90;;;;;;5050447;28;20594;-76
2023/01/13 00:26:01;;;;;;;1.10;0.40;;;13.80;99.90;;;;;;5050286;28;20648;-76
2023/01/13 00:28:27;;;;;;;1.20;0.50;;;13.80;99.90;;;;;;5054469;28;20614;-76
2023/01/13 00:30:56;;;;;;;1.30;0.50;;;13.80;99.90;;;;;;5050128;28;20638;-76
2023/01/13 00:33:23;;;;;;;1.20;0.50;;;13.70;99.90;;;;;;5049990;28;20594;-76
2023/01/13 00:35:59;;;;;;;1.70;0.40;;;13.60;99.90;;;;;;5033714;28;20610;-76
2023/01/13 00:38:25;;;;;;;1.50;0.40;;;13.50;99.90;;;;;;5030954;28;1063258;-76
2023/01/13 00:41:08;;;;;;;1.50;0.43;;;13.40;99.90;;;;;;5068527;28;20567;-76
2023/01/13 00:43:35;;;;;;;1.10;0.50;;;13.30;99.90;;;;;;5079059;28;20627;-76
2023/01/13 00:46:02;;;;;;;1.10;0.40;;;13.20;99.90;;;;;;5069235;28;20180;-76
2023/01/13 00:48:28;;;;;;;1.33;0.40;;;13.00;99.90;;;;;;5060779;28;20647;-76
2023/01/13 00:51:03;;;;;;;1.00;0.40;;;12.90;99.90;;;;;;5058163;28;20209;-76
2023/01/13 00:53:33;;;;;;;1.10;0.40;;;12.90;99.90;;;;;;5071158;28;20593;-76
2023/01/13 00:56:00;;;;;;;1.00;0.40;;;12.80;99.90;;;;;;5050937;28;20184;-76
2023/01/13 00:58:27;;;;;;;1.00;0.40;;;12.70;99.90;;;;;;5050795;28;20283;-76
2023/01/13 01:00:53;;;;;;;1.10;0.40;;;12.70;99.90;;;;;;5068573;28;20180;-76
2023/01/13 01:03:19;;;;;;;1.10;0.40;;;12.60;99.90;;;;;;5068749;28;20167;-76
2023/01/13 01:05:44;;;;;;;1.30;0.40;;;12.60;99.90;;;;;;5069523;28;20164;-76
2023/01/13 01:08:10;;;;;;;1.20;0.40;;;12.60;99.90;;;;;;5081303;28;20682;-76
2023/01/13 01:10:35;;;;;;;1.40;0.40;;;12.60;99.90;;;;;;5059665;28;20196;-76
2023/01/13 01:13:01;;;;;;;2.27;0.40;;;12.60;99.90;;;;;;5080275;28;20229;-76
2023/01/13 01:15:27;;;;;;;1.93;0.40;;;12.50;99.90;;;;;;5034119;28;20176;-76
2023/01/13 01:17:52;;;;;;;1.23;0.80;;;12.50;99.90;;;;;;5061222;28;20233;-76
2023/01/13 01:20:18;;;;;;;4.13;0.50;;;12.50;99.90;;;;;;5069546;28;20215;-76
2023/01/13 01:22:44;;;;;;;1.87;0.70;;;12.50;99.90;;;;;;5068560;28;20211;-76
2023/01/13 01:25:09;;;;;;;2.53;0.93;;;12.50;99.90;;;;;;5050803;28;20267;-76
2023/01/13 01:27:35;;;;;;;1.60;0.70;;;12.50;99.90;;;;;;5050440;28;20196;-76
2023/01/13 01:30:01;;;;;;;2.60;0.80;;;12.50;99.90;;;;;;5068149;28;20200;-76
2023/01/13 01:32:26;;;;;;;2.83;0.70;;;12.50;99.90;;;;;;5067870;28;20176;-76
2023/01/13 01:34:52;;;;;;;2.07;0.57;;;12.50;99.90;;;;;;5075551;28;20527;-76
2023/01/13 01:37:18;;;;;;;1.30;0.60;;;12.40;99.90;;;;;;5061837;28;20207;-76
2023/01/13 01:39:43;;;;;;;1.60;0.40;;;12.50;99.90;;;;;;5052383;28;20191;-76
2023/01/13 01:45:07;;;;;;;1.67;0.60;;;12.40;99.90;;;;;;5067023;28;20258;-76
2023/01/13 01:47:33;;;;;;;2.78;0.47;;;12.40;99.90;;;;;;5078068;28;20192;-76
2023/01/13 01:50:02;;;;;;;3.05;0.60;;;12.40;99.90;;;;;;5087575;28;20287;-76
2023/01/13 01:52:36;;;;;;;3.25;1.08;;;12.30;99.90;;;;;;5060945;28;20179;-76
2023/01/13 01:55:09;;;;;;;3.33;0.40;;;12.20;99.90;;;;;;5043221;28;20175;-76
2023/01/13 01:58:01;;;;;;;2.67;0.57;;;12.10;99.90;;;;;;5054626;28;20660;-76
2023/01/13 02:00:29;;;;;;;1.20;0.50;;;12.00;99.90;;;;;;5051292;28;20212;-76
2023/01/13 02:02:55;;;;;;;5.43;1.27;;;12.00;99.90;;;;;;5076348;28;20226;-76
2023/01/13 02:05:22;;;;;;;1.63;0.50;;;11.90;99.90;;;;;;5092200;28;20586;-76
2023/01/13 02:07:50;;;;;;;1.30;0.50;;;11.70;99.90;;;;;;5073865;28;20790;-76
2023/01/13 02:10:20;;;;;;;1.90;0.52;;;11.70;99.90;;;;;;5073106;28;20229;-76
2023/01/13 02:12:47;;;;;;;2.05;0.57;;;11.70;99.90;;;;;;5056826;28;20174;-75
2023/01/13 02:15:17;;;;;;;2.10;0.50;;;11.60;99.90;;;;;;5056681;28;20167;-76
2023/01/13 02:17:58;;;;;;;1.10;0.50;;;11.60;99.90;;;;;;5073813;28;20226;-76
2023/01/13 02:20:43;;;;;;;1.45;0.50;;;11.60;99.90;;;;;;5095820;28;20295;-76
2023/01/13 02:27:07;;;;;;;1.48;0.50;;;11.50;99.90;;;;;;5070484;28;20198;-76
2023/01/13 02:33:12;;;;;;;1.30;0.50;;;11.50;99.90;;;;;;5090981;28;20254;-76
2023/01/13 02:36:00;;;;;;;1.50;0.50;;;11.50;99.90;;;;;;5043848;28;20190;-76
2023/01/13 02:38:56;;;;;;;1.20;0.60;;;11.50;99.90;;;;;;5073226;28;20211;-76
2023/01/13 02:44:23;;;;;;;2.58;0.60;;;11.50;99.90;;;;;;5056142;28;20274;-76
2023/01/13 02:46:53;;;;;;;1.63;0.50;;;11.60;99.90;;;;;;5056142;28;20227;-77
2023/01/13 02:49:33;;;;;;;1.75;0.50;;;11.60;99.90;;;;;;5040171;28;20321;-76
2023/01/13 02:52:21;;;;;;;1.50;0.60;;;11.60;99.90;;;;;;5055636;28;20171;-76
2023/01/13 02:54:53;;;;;;;1.83;0.50;;;11.60;99.90;;;;;;5056085;28;20172;-76
2023/01/13 02:57:20;;;;;;;1.85;0.50;;;11.60;99.90;;;;;;5076431;28;20231;-76
2023/01/13 02:59:47;;;;;;;2.63;0.80;;;11.60;99.90;;;;;;5090610;28;20258;-76
2023/01/13 03:02:17;;;;;;;2.30;0.57;;;11.60;99.90;;;;;;5072395;28;20258;-76
2023/01/13 03:04:47;;;;;;;2.60;0.60;;;11.60;99.90;;;;;;5035112;28;20796;-76
2023/01/13 03:07:41;;;;;;;1.75;0.50;;;11.60;99.90;;;;;;5072867;28;20223;-76
2023/01/13 03:10:26;;;;;;;1.55;0.60;;;11.60;99.90;;;;;;5089487;28;20203;-76
2023/01/13 03:13:34;;;;;;;2.58;1.00;;;11.60;99.90;;;;;;5072126;28;20563;-76
2023/01/13 03:16:03;;;;;;;3.80;0.50;;;11.60;99.90;;;;;;5072757;28;20168;-76
2023/01/13 03:18:47;;;;;;;3.95;0.50;;;11.60;99.90;;;;;;5072451;28;20226;-76
2023/01/13 03:21:24;;;;;;;2.78;0.60;;;11.60;99.90;;;;;;5071846;28;20187;-76
2023/01/13 03:24:01;;;;;;;2.30;0.70;;;11.60;99.90;;;;;;5071787;28;20179;-76
2023/01/13 03:26:49;;;;;;;3.35;0.93;;;11.60;99.90;;;;;;5076951;28;20241;-76
2023/01/13 03:29:26;;;;;;;1.70;0.57;;;11.60;99.90;;;;;;5063952;28;20171;-76
2023/01/13 03:32:09;;;;;;;2.80;0.73;;;11.60;99.90;;;;;;5071612;28;20230;-76
2023/01/13 03:35:10;;;;;;;3.25;0.70;;;11.60;99.90;;;;;;5094651;28;20168;-77
2023/01/13 03:37:40;;;;;;;4.15;0.65;;;11.50;99.90;;;;;;5090387;28;20190;-76
2023/01/13 03:40:14;;;;;;;4.00;0.60;;;11.50;99.90;;;;;;5089722;28;20164;-77
2023/01/13 03:44:20;;;;;;;3.25;0.68;;;11.50;99.90;;;;;;5054514;28;20176;-76
2023/01/13 03:45:34;;;;;;;3.20;0.80;;;11.50;99.90;;;;;;5063258;28;20176;-77
2023/01/13 03:48:05;;;;;;;3.20;1.10;;;11.50;99.90;;;;;;5054530;28;20621;-76
2023/01/13 03:50:37;;;;;;;3.63;0.60;;;11.50;99.90;;;;;;5088714;28;20211;-76
2023/01/13 03:53:40;;;;;;;3.95;0.80;;;11.40;99.90;;;;;;5063983;28;20183;-76
2023/01/13 03:56:16;;;;;;;5.55;0.80;;;11.40;99.90;;;;;;5047834;28;20191;-76
2023/01/13 03:58:46;;;;;;;3.90;0.80;;;11.50;99.90;;;;;;5063662;28;20223;-76
2023/01/13 04:01:17;;;;;;;2.90;1.02;;;11.50;99.90;;;;;;5088211;28;20210;-77
2023/01/13 04:04:08;;;;;;;4.82;0.90;;;11.50;99.90;;;;;;5071383;28;20252;-76
2023/01/13 04:06:43;;;;;;;4.78;0.85;;;11.50;99.90;;;;;;5071744;28;20254;-76
2023/01/13 04:09:55;;;;;;;7.57;0.98;;;11.50;99.90;;;;;;5089951;28;20178;-76
2023/01/13 04:12:59;;;;;;;4.30;0.88;;;11.50;99.90;;;;;;5011829;28;20695;-76
2023/01/13 04:15:20;;;;;;;3.50;0.90;;;11.50;99.90;;;;;;5088907;28;20533;-76
2023/01/13 04:17:45;;;;;;;4.28;0.90;;;11.50;99.90;;;;;;5051213;28;20266;-77
2023/01/13 04:20:11;;;;;;;4.10;1.00;;;11.50;99.90;;;;;;5079414;28;20964;-76
2023/01/13 04:22:37;;;;;;;9.00;0.93;;;11.50;99.90;;;;;;5069732;28;20258;-76
2023/01/13 04:25:03;;;;;;;4.13;0.90;;;11.40;99.90;;;;;;5069203;28;20207;-76
2023/01/13 04:27:29;;;;;;;3.67;1.13;;;11.40;99.90;;;;;;5071089;28;20191;-76
2023/01/13 04:29:55;;;;;;;6.18;1.50;;;11.30;99.90;;;;;;5088784;28;20260;-76
2023/01/13 04:32:20;;;;;;;5.67;1.13;;;11.30;99.90;;;;;;5089328;28;20636;-76
2023/01/13 04:34:46;;;;;;;8.97;1.57;;;11.20;99.90;;;;;;5054848;28;20179;-76
2023/01/13 04:37:12;;;;;;;7.63;1.42;;;11.10;99.90;;;;;;5071072;28;20209;-76
2023/01/13 04:39:38;;;;;;;5.83;1.30;;;11.10;99.90;;;;;;5070327;28;20624;-76
2023/01/13 04:42:03;;;;;;;8.40;1.10;;;11.00;99.90;;;;;;5089158;28;20160;-76
2023/01/13 04:44:33;;;;;;;9.60;2.83;;;11.00;99.90;;;;;;5070998;28;20178;-76
2023/01/13 04:47:00;;;;;;;8.25;1.20;;;10.90;99.90;;;;;;5070712;28;20188;-76
2023/01/13 04:49:27;;;;;;;7.63;1.00;;;10.90;99.90;;;;;;5092228;28;20263;-76
2023/01/13 04:51:53;;;;;;;6.53;1.10;;;10.90;99.90;;;;;;5045358;28;20195;-76
2023/01/13 04:54:19;;;;;;;7.13;1.20;;;10.80;99.90;;;;;;5088035;28;20690;-79
2023/01/13 04:56:44;;;;;;;6.00;1.30;;;10.80;99.90;;;;;;5085106;28;20601;-76
2023/01/13 04:59:11;;;;;;;5.57;1.20;;;10.70;99.90;;;;;;5065362;28;20600;-76
2023/01/13 05:01:37;;;;;;;4.03;1.02;;;10.70;99.90;;;;;;5051997;28;20198;-76
2023/01/13 05:04:04;;;;;;;8.98;1.33;;;10.70;99.90;;;;;;5098682;22;20319;-80
2023/01/13 05:06:29;;;;;;;7.30;1.00;;;10.70;99.90;;;;;;5058907;28;20694;-79
2023/01/13 05:08:56;;;;;;;7.70;2.43;;;10.80;99.90;;;;;;5123310;28;20160;-79
2023/01/13 05:16:59;;;;;;;12.30;1.38;;;10.90;99.90;;;;;;5092039;28;20269;-78
2023/01/13 05:19:25;;;;;;;4.45;1.10;;;10.90;99.90;;;;;;5098083;28;20205;-79
2023/01/13 05:27:19;;;;;;;7.50;1.50;;;10.90;99.90;;;;;;5133750;28;20182;-79
2023/01/13 05:29:45;;;;;;;5.10;1.53;;;10.90;99.90;;;;;;5116072;28;20163;-79
2023/01/13 05:32:11;;;;;;;4.30;1.00;;;10.90;99.90;;;;;;5099524;28;20178;-79
2023/01/13 05:34:36;;;;;;;7.50;1.40;;;10.90;99.90;;;;;;5119568;28;20190;-78
2023/01/13 05:37:04;;;;;;;6.33;1.20;;;10.80;99.90;;;;;;5100198;28;20239;-79
2023/01/13 05:43:18;;;;;;;7.88;1.40;;;10.90;99.90;;;;;;5097015;28;20211;-79
2023/01/13 05:45:00;;;;;;;5.15;1.67;;;10.80;99.90;;;;;;5097113;28;20171;-79
2023/01/13 05:47:26;;;;;;;5.35;0.90;;;10.80;99.90;;;;;;5101400;28;20171;-79
2023/01/13 05:49:52;;;;;;;4.27;1.10;;;10.80;99.90;;;;;;5115018;28;20646;-79
2023/01/13 05:52:18;;;;;;;5.30;1.33;;;10.80;99.90;;;;;;5097611;28;20175;-81
2023/01/13 05:54:43;;;;;;;5.27;1.10;;;10.80;99.90;;;;;;5097771;28;20202;-79
2023/01/13 05:57:09;;;;;;;6.80;0.90;;;10.90;99.90;;;;;;5115664;28;20167;-79
2023/01/13 05:59:35;;;;;;;7.10;1.17;;;10.90;99.90;;;;;;5095056;28;20649;-82
2023/01/13 06:02:01;;;;;;;5.20;1.00;;;10.90;99.90;;;;;;5094685;28;20646;-80
2023/01/13 06:04:26;;;;;;;3.50;0.80;;;11.00;99.90;;;;;;5094729;28;20906;-81
2023/01/13 06:06:52;;;;;;;6.10;0.90;;;11.00;99.90;;;;;;5112866;28;20207;-78
2023/01/13 06:09:19;;;;;;;6.27;1.00;;;11.00;99.90;;;;;;5094475;28;20634;-79
2023/01/13 06:11:45;;;;;;;3.05;0.75;;;11.00;99.90;;;;;;5076623;28;20643;-80
2023/01/13 06:14:11;;;;;;;2.90;0.80;;;11.10;99.90;;;;;;5094150;28;20190;-80
2023/01/13 06:16:37;;;;;;;5.43;0.80;;;11.10;99.90;;;;;;5094433;28;20173;-80
2023/01/13 06:19:07;;;;;;;6.63;0.90;;;11.10;99.90;;;;;;5094397;28;20686;-80
2023/01/13 06:21:34;;;;;;;4.43;1.30;;;11.10;99.90;;;;;;5077047;28;20179;-80
2023/01/13 06:24:00;;;;;;;4.60;1.00;;;11.10;99.90;;;;;;5093713;28;20202;-81
2023/01/13 06:26:28;;;;;;;4.03;0.90;;;11.10;99.90;;;;;;5069884;28;20267;-80
2023/01/13 06:28:54;;;;;;;4.25;0.80;;;11.10;99.90;;;;;;5070174;28;20183;-80
2023/01/13 06:31:20;;;;;;;6.30;1.60;;;11.20;99.90;;;;;;5061427;28;20207;-80
2023/01/13 06:33:55;;;;;;;3.08;0.70;;;11.20;99.90;;;;;;5058533;28;20196;-80
2023/01/13 06:36:29;;;;;;;2.17;0.70;;;11.20;99.90;;;;;;5062125;28;20170;-80
2023/01/13 06:39:00;;;;;;;3.35;0.90;;;11.20;99.90;;;;;;5072788;28;20638;-80
2023/01/13 06:44:16;;;;;;;4.50;0.98;;;11.30;99.90;;;;;;5057204;28;20535;-80
2023/01/13 06:46:42;;;;;;;2.67;0.80;;;11.30;99.90;;;;;;5088507;28;20176;-80
2023/01/13 06:49:08;;;;;;;4.17;1.03;;;11.30;99.90;;;;;;5091433;28;20702;-80
2023/01/13 06:51:34;;;;;;;2.90;0.80;;;11.30;99.90;;;;;;5088858;28;20210;-80
2023/01/13 06:54:00;;;;;;;3.05;0.82;;;11.30;99.90;;;;;;5090966;28;20718;-81
2023/01/13 06:56:26;;;;;;;4.57;1.02;;;11.20;99.90;;;;;;5091189;28;20159;-81
2023/01/13 06:58:52;;;;;;;3.00;1.10;;;11.20;99.90;;;;;;5091287;28;20171;-80
2023/01/13 07:01:18;;;;;;;5.30;1.20;;;11.20;99.90;;;;;;5085866;28;20184;-81
2023/01/13 07:03:43;;;;;;;3.30;0.90;;;11.20;99.90;;;;;;5072378;28;20264;-81
2023/01/13 07:06:09;;;;;;;5.60;1.20;;;11.20;99.90;;;;;;5077752;28;20262;-80
2023/01/13 07:08:35;;;;;;;4.40;0.93;;;11.20;99.90;;;;;;5072731;28;20175;-81
2023/01/13 07:11:01;;;;;;;4.83;0.73;;;11.20;99.90;;;;;;5072131;28;20207;-79
2023/01/13 07:16:11;;;;;;;2.85;0.80;;;11.20;99.90;;;;;;5090725;28;20682;-80
2023/01/13 07:18:37;;;;;;;3.75;0.90;;;11.20;99.90;;;;;;5090984;28;20317;-79
2023/01/13 07:21:06;;;;;;;1.90;0.60;;;11.20;99.90;;;;;;5054550;28;20270;-79
2023/01/13 07:23:37;;;;;;;2.53;0.60;;;11.20;99.90;;;;;;5072379;28;20613;-80
2023/01/13 07:26:03;;;;;;;2.20;0.75;;;11.20;99.90;;;;;;5072197;28;20180;-80
2023/01/13 07:28:30;;;;;;;3.05;0.70;;;11.20;99.90;;;;;;5065326;28;20184;-80
2023/01/13 07:30:56;;;;;;;2.50;0.60;;;11.20;99.90;;;;;;5078625;28;20214;-79
2023/01/13 07:33:22;;;;;;;2.58;0.70;;;11.20;99.90;;;;;;5063476;28;20199;-80
2023/01/13 07:35:56;;;;;;;2.00;0.70;;;11.10;99.90;;;;;;5068827;28;20187;-82
2023/01/13 07:38:22;;;;;;;2.80;0.80;;;11.10;99.90;;;;;;5072747;28;20180;-82
2023/01/13 07:40:47;;;;;;;2.20;0.60;;;11.10;99.90;;;;;;5071165;28;20187;-81
2023/01/13 07:43:31;;;;;;;4.47;0.60;;;11.00;99.90;;;;;;5089690;28;20621;-82
2023/01/13 07:46:06;;;;;;;4.50;0.70;;;11.00;99.90;;;;;;5065617;28;20191;-79
2023/01/13 07:48:35;;;;;;;2.20;0.60;;;10.90;99.90;;;;;;5069351;28;20176;-79
2023/01/13 07:51:06;;;;;;;1.70;0.80;;;10.90;99.90;;;;;;5068200;28;20269;-78
2023/01/13 07:53:32;;;;;;;5.00;1.13;;;10.80;99.90;;;;;;5067926;28;20195;-79
2023/01/13 07:55:58;;;;;;;3.83;0.60;;;10.80;99.90;;;;;;5051657;28;20168;-79
2023/01/13 07:58:25;;;;;;;3.92;1.20;;;10.80;99.90;;;;;;5071300;28;20583;-79
2023/01/13 08:00:50;;;;;;;3.78;0.80;;;10.70;99.90;;;;;;5083180;28;20286;-80
2023/01/13 08:03:16;;;;;;;5.30;1.00;;;10.70;99.90;;;;;;5085475;28;20208;-79
2023/01/13 08:05:42;;;;;;;5.63;0.80;;;10.60;99.90;;;;;;5087878;28;20583;-79
2023/01/13 08:08:08;;;;;;;2.53;0.90;;;10.60;99.90;;;;;;5046297;28;20274;-79
2023/01/13 08:10:33;;;;;;;2.33;0.63;;;10.60;99.90;;;;;;5070080;28;20226;-79
2023/01/13 08:13:18;;;;;;;1.63;0.60;;;10.50;99.90;;;;;;5087485;28;20191;-79
2023/01/13 08:15:45;;;;;;;3.30;0.80;;;10.50;99.90;;;;;;5070337;28;20183;-78
2023/01/13 08:18:11;;;;;;;3.38;1.02;;;10.50;99.90;;;;;;5087475;28;20175;-79
2023/01/13 08:20:37;;;;;;;5.20;1.00;;;10.50;99.90;;;;;;5086937;28;20177;-79
2023/01/13 08:23:03;;;;;;;3.47;0.70;;;10.50;99.90;;;;;;5088858;28;20306;-79
2023/01/13 08:25:29;;;;;;;3.00;0.87;;;10.50;99.90;;;;;;5088388;28;20574;-79
2023/01/13 08:27:55;;;;;;;4.50;1.00;;;10.50;99.90;;;;;;5089810;28;20176;-79
2023/01/13 08:30:22;;;;;;;3.38;0.90;;;10.50;99.90;;;;;;5070909;28;20607;-79
2023/01/13 08:32:48;;;;;;;3.88;0.80;;;10.60;99.90;;;;;;5089092;28;20250;-79
2023/01/13 08:35:16;;;;;;;2.53;0.98;;;10.60;99.90;;;;;;5088269;28;20206;-79
2023/01/13 08:37:43;;;;;;;4.38;1.45;;;10.60;99.90;;;;;;5088163;28;20274;-79
2023/01/13 08:40:09;;;;;;;5.10;1.30;;;10.60;99.90;;;;;;5087757;28;20254;-79
2023/01/13 08:42:35;;;;;;;4.38;1.00;;;10.60;99.90;;;;;;5087636;28;20259;-79
2023/01/13 08:45:01;;;;;;;3.00;0.90;;;10.70;99.90;;;;;;5089471;28;20258;-80
2023/01/13 08:47:27;;;;;;;6.72;0.80;;;10.70;99.90;;;;;;5087865;28;20179;-79
2023/01/13 08:49:53;;;;;;;3.65;1.83;;;10.80;99.90;;;;;;5087622;28;20183;-79
2023/01/13 08:52:20;;;;;;;5.38;2.20;;;10.90;99.90;;;;;;5087874;28;20527;-80
2023/01/13 08:54:45;;;;;;;6.32;1.38;;;10.90;99.90;;;;;;5089339;28;20248;-79
2023/01/13 08:57:12;;;;;;;5.30;1.00;;;11.00;99.90;;;;;;5087823;28;20175;-79
2023/01/13 08:59:38;;;;;;;7.85;1.00;;;11.10;99.90;;;;;;5089515;28;20174;-79
2023/01/13 09:02:16;;;;;;;7.10;1.03;;;11.10;99.90;;;;;;5089050;28;20175;-79
2023/01/13 09:04:42;;;;;;;8.38;1.60;;;11.20;99.90;;;;;;5089436;28;20293;-79
2023/01/13 09:07:08;;;;;;;8.20;1.77;;;11.30;99.90;;;;;;5089661;28;20176;-79
2023/01/13 09:09:35;;;;;;;5.17;1.60;;;11.30;99.90;;;;;;5094069;28;20228;-79
2023/01/13 09:14:45;;;;;;;6.43;1.20;;;11.50;99.90;;;;;;5093289;28;20183;-80
2023/01/13 09:17:10;;;;;;;4.77;1.00;;;11.50;99.90;;;;;;5075348;28;20167;-79
2023/01/13 09:19:36;;;;;;;10.40;1.53;;;11.60;99.90;;;;;;5075066;28;20171;-79
2023/01/13 09:22:02;;;;;;;6.13;1.63;;;11.60;99.90;;;;;;5092124;28;20183;-79
2023/01/13 09:24:29;;;;;;;10.77;1.85;;;11.70;99.90;;;;;;5094180;28;20226;-78
2023/01/13 09:26:54;;;;;;;7.90;1.55;;;11.80;99.90;;;;;;5094450;28;20183;-79
2023/01/13 09:29:20;;;;;;;8.00;1.20;;;11.80;99.90;;;;;;5091686;28;20171;-79
2023/01/13 09:31:46;;;;;;;8.02;1.30;;;11.90;99.90;;;;;;5091181;28;20221;-78
2023/01/13 09:37:00;;;;;;;7.03;1.20;;;12.00;99.90;;;;;;5091571;28;20573;-79
2023/01/13 09:39:26;;;;;;;7.25;1.80;;;12.10;99.90;;;;;;5092955;28;20175;-78
2023/01/13 09:44:41;;;;;;;10.60;2.17;;;12.20;99.90;;;;;;5091406;28;20199;-79
2023/01/13 09:47:31;;;;;;;9.07;1.47;;;12.30;99.90;;;;;;5092598;28;20221;-79
2023/01/13 09:50:14;;;;;;;10.52;1.40;;;12.30;99.90;;;;;;5057032;28;20278;-81
2023/01/13 09:52:41;;;;;;;7.68;1.55;;;12.40;99.90;;;;;;5079954;28;20271;-81
2023/01/13 09:55:17;;;;;;;5.82;1.35;;;12.50;99.90;;;;;;5074482;28;20179;-82
2023/01/13 09:57:42;;;;;;;6.00;1.45;;;12.50;99.90;;;;;;5092396;28;20527;-81
2023/01/13 10:00:11;;;;;;;9.20;2.03;;;12.70;99.90;;;;;;5073520;28;20182;-81
2023/01/13 10:02:40;;;;;;;11.15;1.75;;;12.70;99.90;;;;;;5073235;28;20172;-81
2023/01/13 10:05:09;;;;;;;8.35;2.10;;;12.70;99.90;;;;;;5057827;28;20175;-81
2023/01/13 10:07:38;;;;;;;6.93;1.35;;;12.80;99.90;;;;;;5096793;28;20191;-80
2023/01/13 10:10:09;;;;;;;8.00;1.50;;;12.80;99.90;;;;;;5073876;28;20200;-81
2023/01/13 10:15:22;;;;;;;6.82;1.45;;;12.90;99.90;;;;;;5092178;28;20664;-80
2023/01/13 10:17:53;;;;;;;9.60;1.70;;;13.00;99.90;;;;;;5074976;28;20260;-80
2023/01/13 10:20:41;;;;;;;8.17;1.93;;;13.10;99.90;;;;;;5063425;28;20613;-80
2023/01/13 10:23:33;;;;;;;4.15;1.13;;;13.20;99.90;;;;;;5086000;28;20984;-80
2023/01/13 10:26:08;;;;;;;4.03;1.03;;;13.30;99.90;;;;;;5090956;28;20206;-80
2023/01/13 10:28:33;;;;;;;10.50;1.93;;;13.40;99.90;;;;;;5090566;28;20581;-80
2023/01/13 10:30:59;;;;;;;9.00;1.30;;;13.40;99.90;;;;;;5081147;28;21277;-83
2023/01/13 10:33:27;;;;;;;12.90;2.00;;;13.50;99.90;;;;;;5059110;28;20203;-79
2023/01/13 10:36:14;;;;;;;9.20;1.80;;;13.50;99.90;;;;;;5075327;28;20618;-80
2023/01/13 10:38:42;;;;;;;8.90;2.17;;;13.60;99.90;;;;;;5093849;28;20238;-78
2023/01/13 10:41:13;;;;;;;10.80;1.43;;;13.70;99.90;;;;;;5075615;28;20941;-78
2023/01/13 10:43:44;;;;;;;6.00;1.60;;;13.80;99.90;;;;;;5093791;28;20601;-79
2023/01/13 10:46:14;;;;;;;6.10;1.40;;;13.80;99.90;;;;;;5061268;28;21183;-78
2023/01/13 10:48:43;;;;;;;6.67;1.60;;;13.80;99.90;;;;;;5093405;28;21198;-79
2023/01/13 10:51:38;;;;;;;13.05;2.83;;;13.80;99.90;;;;;;5074013;28;20736;-78
2023/01/13 10:54:12;;;;;;;9.53;2.67;;;13.80;99.90;;;;;;5075578;28;20187;-78
2023/01/13 10:56:46;;;;;;;9.83;2.30;;;13.80;99.90;;;;;;5057360;28;20607;-78
2023/01/13 10:59:22;;;;;;;8.37;2.60;;;13.70;99.90;;;;;;5093370;28;21251;-78
2023/01/13 11:02:01;;;;;;;6.95;2.33;;;13.70;99.90;;;;;;5074394;28;20616;-78
2023/01/13 11:04:30;;;;;;;11.60;2.20;;;13.70;99.90;;;;;;5092652;28;20296;-78
2023/01/13 11:06:58;;;;;;;11.20;2.87;;;13.70;99.90;;;;;;5074665;28;20598;-79
2023/01/13 11:09:26;;;;;;;10.00;2.17;;;13.60;99.90;;;;;;5074437;28;20929;-79
2023/01/13 11:11:55;;;;;;;9.17;1.93;;;13.60;99.90;;;;;;5091544;28;20663;-79
2023/01/13 11:14:43;;;;;;;7.33;1.87;;;13.60;99.90;;;;;;5074328;28;20700;-79
2023/01/13 11:17:16;;;;;;;9.57;2.67;;;13.50;99.90;;;;;;5092647;28;20566;-79
2023/01/13 11:19:49;;;;;;;9.23;2.70;;;13.50;99.90;;;;;;5057326;28;20942;-79
2023/01/13 11:22:24;;;;;;;8.47;2.50;;;13.50;99.90;;;;;;5098062;22;20674;-73
2023/01/13 11:24:53;;;;;;;13.47;2.30;;;13.50;99.90;;;;;;5088559;28;20595;-72
2023/01/13 11:27:33;;;;;;;9.80;2.30;;;13.50;99.90;;;;;;5103333;28;20647;-72
2023/01/13 11:30:23;;;;;;;6.80;2.20;;;13.50;99.90;;;;;;5094205;28;20584;-73
2023/01/13 11:33:13;;;;;;;4.90;1.97;;;13.50;99.90;;;;;;5106657;28;20620;-71
2023/01/13 11:36:23;;;;;;;11.00;2.20;;;13.50;99.90;;;;;;5094641;28;21130;-73
2023/01/13 11:39:01;;;;;;;7.60;1.97;;;13.60;99.90;;;;;;5094650;28;20675;-73
2023/01/13 11:41:38;;;;;;;10.33;2.90;;;13.70;99.90;;;;;;5110989;28;20608;-73
2023/01/13 11:44:20;;;;;;;10.03;2.20;;;13.70;99.90;;;;;;5105282;28;20587;-73
2023/01/13 11:46:49;;;;;;;16.80;3.27;;;13.70;99.90;;;;;;5112026;28;20589;-72
2023/01/13 11:49:25;;;;;;;11.13;4.30;;;13.70;99.90;;;;;;5111236;28;20573;-72
2023/01/13 11:52:04;;;;;;;7.23;2.80;;;13.70;99.90;;;;;;5104643;28;21044;-72
2023/01/13 11:54:54;;;;;;;12.80;3.97;;;13.70;99.90;;;;;;5093756;28;20605;-72
2023/01/13 11:57:31;;;;;;;10.40;2.60;;;13.70;99.90;;;;;;5112052;28;20602;-73
2023/01/13 12:00:15;;;;;;;12.50;3.27;;;13.70;99.90;;;;;;5093741;28;20569;-73
2023/01/13 12:03:19;;;;;;;9.23;1.90;;;13.60;99.90;;;;;;5058655;28;20612;-71
2023/01/13 12:06:01;;;;;;;7.27;1.70;;;13.60;99.90;;;;;;5119101;27;21037;-72
2023/01/13 12:08:39;;;;;;;6.13;1.67;;;13.60;99.90;;;;;;5076232;28;20569;-73
2023/01/13 12:11:29;;;;;;;10.13;1.70;;;13.60;99.90;;;;;;5110798;28;20632;-73
2023/01/13 12:14:18;;;;;;;10.13;4.97;;;13.60;99.90;;;;;;5127322;27;20596;-73
2023/01/13 12:16:48;;;;;;;11.43;3.87;;;13.70;99.90;;;;;;5093668;28;20968;-73
2023/01/13 12:19:29;;;;;;;8.83;2.97;;;13.60;99.90;;;;;;5127264;27;20634;-73
2023/01/13 12:22:01;;;;;;;8.90;1.83;;;13.60;99.90;;;;;;5092566;28;20654;-73
2023/01/13 12:24:42;;;;;;;9.40;2.10;;;13.60;99.90;;;;;;5109555;28;20647;-73
2023/01/13 12:27:14;;;;;;;5.97;1.53;;;13.60;99.90;;;;;;5093249;28;20588;-72
2023/01/13 12:29:40;;;;;;;6.93;1.33;;;13.70;99.90;;;;;;5110516;28;20672;-72
2023/01/13 12:32:17;;;;;;;4.63;1.23;;;13.70;99.90;;;;;;5092760;28;20758;-72
2023/01/13 12:35:00;;;;;;;8.87;1.33;;;13.70;99.90;;;;;;5091124;28;20183;-72
2023/01/13 12:37:46;;;;;;;7.73;1.97;;;13.60;99.90;;;;;;5073170;28;20570;-72
2023/01/13 12:40:33;;;;;;;9.43;1.23;;;13.60;99.90;;;;;;5072254;28;20570;-73
2023/01/13 12:46:18;;;;;;;5.67;1.20;;;13.60;99.90;;;;;;5091040;28;20595;-73
2023/01/13 12:48:53;;;;;;;4.10;1.20;;;13.60;99.90;;;;;;5089683;28;20661;-73
2023/01/13 12:51:31;;;;;;;9.57;1.10;;;13.60;99.90;;;;;;5090232;28;20633;-73
2023/01/13 12:54:04;;;;;;;8.40;1.93;;;13.60;99.90;;;;;;5089951;28;20569;-73
2023/01/13 12:56:43;;;;;;;5.60;2.03;;;13.50;99.90;;;;;;5056442;28;20589;-73
2023/01/13 12:59:18;;;;;;;9.33;1.97;;;13.50;99.90;;;;;;5055558;28;20903;-73
2023/01/13 13:02:08;;;;;;;6.30;1.90;;;13.40;99.90;;;;;;5095284;28;20678;-73
2023/01/13 13:04:50;;;;;;;8.50;2.10;;;13.30;99.90;;;;;;5068367;28;20585;-73
2023/01/13 13:07:25;;;;;;;7.07;3.22;;;13.30;99.90;;;;;;5091213;28;21162;-73
2023/01/13 13:10:18;;;;;;;12.57;3.30;;;13.20;99.90;;;;;;5102480;28;20649;-74
2023/01/13 13:15:32;;;;;;;7.93;2.63;;;13.00;99.90;;;;;;5109771;28;20276;-74
2023/01/13 13:18:07;;;;;;;8.10;1.80;;;12.90;99.90;;;;;;5110502;28;20649;-74
2023/01/13 13:21:12;;;;;;;5.20;1.60;;;12.70;99.90;;;;;;5109401;28;20202;-73
2023/01/13 13:23:48;;;;;;;8.13;1.65;;;12.50;99.90;;;;;;5010857;28;20237;-74
2023/01/13 13:26:20;;;;;;;5.65;2.47;;;12.30;99.90;;;;;;5026869;28;20217;-73
2023/01/13 13:29:07;;;;;;;7.50;1.50;;;12.10;99.90;;;;;;5066570;28;20263;-72
2023/01/13 13:32:04;;;;;;;5.55;1.80;;;11.90;99.90;;;;;;5108244;28;20256;-73
2023/01/13 13:34:49;;;;;;;4.75;1.60;;;11.70;99.90;;;;;;5110858;28;20559;-73
2023/01/13 13:37:29;;;;;;;7.90;1.75;;;11.60;99.90;;;;;;5092077;28;20264;-74
2023/01/13 13:48:28;;;;;;;5.60;1.30;;;11.10;99.90;;;;;;5074369;28;20252;-74
2023/01/13 13:51:00;;;;;;;4.18;1.35;;;11.00;99.90;;;;;;5065983;28;20267;-73
2023/01/13 13:53:33;;;;;;;7.20;1.85;;;11.00;99.90;;;;;;5110437;28;20167;-73
2023/01/13 13:56:01;;;;;;;8.65;1.60;;;10.90;99.90;;;;;;5114600;28;20167;-74
2023/01/13 13:58:32;;;;;;;5.93;1.63;;;10.80;99.90;;;;;;5096204;28;20900;-74
2023/01/13 14:00:59;;;;;;;4.10;1.90;;;10.80;99.90;;;;;;5095281;28;20191;-73
2023/01/13 14:03:33;;;;;;;7.40;1.75;;;10.70;99.90;;;;;;5113717;28;20171;-73
2023/01/13 14:06:02;;;;;;;5.20;2.00;;;10.70;99.90;;;;;;5113739;28;20265;-74
2023/01/13 14:08:32;;;;;;;6.72;1.73;;;10.70;99.90;;;;;;5079125;28;20182;-73